sensor_id;sensor_type;location;lat;lon;timestamp;temperature;humidity
80290;SHT30;69592;44.804;-0.550;2023-05-10T00:02:09;14.14;80.40
80290;SHT30;69592;44.804;-0.550;2023-05-10T00:04:35;14.16;80.14
80290;SHT30;69592;44.804;-0.550;2023-05-10T00:07:01;14.14;80.48
80290;SHT30;69592;44.804;-0.550;2023-05-10T00:09:26;14.17;80.40
80290;SHT30;69592;44.804;-0.550;2023-05-10T00:11:52;14.14;79.95
80290;SHT30;69592;44.804;-0.550;2023-05-10T00:14:17;14.08;80.18
80290;SHT30;69592;44.804;-0.550;2023-05-10T00:16:43;14.11;80.05
80290;SHT30;69592;44.804;-0.550;2023-05-10T00:19:08;14.07;80.45
80290;SHT30;69592;44.804;-0.550;2023-05-10T00:21:34;14.13;79.82
80290;SHT30;69592;44.804;-0.550;2023-05-10T00:23:59;14.11;79.82
80290;SHT30;69592;44.804;-0.550;2023-05-10T00:26:25;13.91;80.27
80290;SHT30;69592;44.804;-0.550;2023-05-10T00:28:51;13.93;80.33
80290;SHT30;69592;44.804;-0.550;2023-05-10T00:31:16;13.93;80.16
80290;SHT30;69592;44.804;-0.550;2023-05-10T00:33:42;13.96;80.52
80290;SHT30;69592;44.804;-0.550;2023-05-10T00:36:07;14.03;80.00
80290;SHT30;69592;44.804;-0.550;2023-05-10T00:38:33;14.08;80.19
80290;SHT30;69592;44.804;-0.550;2023-05-10T00:40:59;14.13;79.67
80290;SHT30;69592;44.804;-0.550;2023-05-10T00:43:24;14.11;79.64
80290;SHT30;69592;44.804;-0.550;2023-05-10T00:45:50;14.14;79.79
80290;SHT30;69592;44.804;-0.550;2023-05-10T00:48:15;14.06;79.57
80290;SHT30;69592;44.804;-0.550;2023-05-10T00:50:41;14.01;79.47
80290;SHT30;69592;44.804;-0.550;2023-05-10T00:53:07;14.01;79.72
80290;SHT30;69592;44.804;-0.550;2023-05-10T00:55:33;13.98;79.51
80290;SHT30;69592;44.804;-0.550;2023-05-10T00:57:58;14.00;79.92
80290;SHT30;69592;44.804;-0.550;2023-05-10T01:00:24;14.01;80.01
80290;SHT30;69592;44.804;-0.550;2023-05-10T01:02:51;14.04;79.98
80290;SHT30;69592;44.804;-0.550;2023-05-10T01:05:17;13.96;80.16
80290;SHT30;69592;44.804;-0.550;2023-05-10T01:07:43;13.98;80.10
80290;SHT30;69592;44.804;-0.550;2023-05-10T01:10:08;14.00;80.08
80290;SHT30;69592;44.804;-0.550;2023-05-10T01:12:37;14.01;80.08
80290;SHT30;69592;44.804;-0.550;2023-05-10T01:15:03;14.03;80.31
80290;SHT30;69592;44.804;-0.550;2023-05-10T01:17:30;14.06;80.11
80290;SHT30;69592;44.804;-0.550;2023-05-10T01:19:56;14.06;80.10
80290;SHT30;69592;44.804;-0.550;2023-05-10T01:33:19;14.16;78.89
80290;SHT30;69592;44.804;-0.550;2023-05-10T01:36:05;14.17;78.78
80290;SHT30;69592;44.804;-0.550;2023-05-10T01:38:53;14.14;78.93
80290;SHT30;69592;44.804;-0.550;2023-05-10T01:44:38;14.10;78.68
80290;SHT30;69592;44.804;-0.550;2023-05-10T01:47:17;14.08;78.77
80290;SHT30;69592;44.804;-0.550;2023-05-10T01:49:50;14.07;78.89
80290;SHT30;69592;44.804;-0.550;2023-05-10T01:52:18;14.07;78.71
80290;SHT30;69592;44.804;-0.550;2023-05-10T01:54:50;14.03;79.17
80290;SHT30;69592;44.804;-0.550;2023-05-10T01:57:20;14.01;79.06
80290;SHT30;69592;44.804;-0.550;2023-05-10T01:59:49;13.98;79.08
80290;SHT30;69592;44.804;-0.550;2023-05-10T02:02:15;13.98;79.27
80290;SHT30;69592;44.804;-0.550;2023-05-10T02:04:43;13.96;79.48
80290;SHT30;69592;44.804;-0.550;2023-05-10T02:07:10;14.08;79.14
80290;SHT30;69592;44.804;-0.550;2023-05-10T02:09:37;14.14;78.94
80290;SHT30;69592;44.804;-0.550;2023-05-10T02:12:05;14.08;78.90
80290;SHT30;69592;44.804;-0.550;2023-05-10T02:14:34;14.14;78.76
80290;SHT30;69592;44.804;-0.550;2023-05-10T02:17:02;14.14;78.93
80290;SHT30;69592;44.804;-0.550;2023-05-10T02:19:32;14.10;79.09
80290;SHT30;69592;44.804;-0.550;2023-05-10T02:22:01;14.06;78.98
80290;SHT30;69592;44.804;-0.550;2023-05-10T02:24:28;14.08;78.83
80290;SHT30;69592;44.804;-0.550;2023-05-10T02:26:55;14.00;79.33
80290;SHT30;69592;44.804;-0.550;2023-05-10T02:29:23;14.00;79.61
80290;SHT30;69592;44.804;-0.550;2023-05-10T02:31:51;14.00;79.35
80290;SHT30;69592;44.804;-0.550;2023-05-10T02:34:19;13.93;79.66
80290;SHT30;69592;44.804;-0.550;2023-05-10T02:36:45;13.94;79.65
80290;SHT30;69592;44.804;-0.550;2023-05-10T02:39:12;13.94;79.58
80290;SHT30;69592;44.804;-0.550;2023-05-10T02:41:40;13.93;79.65
80290;SHT30;69592;44.804;-0.550;2023-05-10T02:44:07;13.84;79.71
80290;SHT30;69592;44.804;-0.550;2023-05-10T02:46:34;13.81;79.86
80290;SHT30;69592;44.804;-0.550;2023-05-10T02:49:00;13.81;79.80
80290;SHT30;69592;44.804;-0.550;2023-05-10T02:51:30;13.66;80.16
80290;SHT30;69592;44.804;-0.550;2023-05-10T02:53:57;13.63;80.73
80290;SHT30;69592;44.804;-0.550;2023-05-10T02:56:36;13.63;80.49
80290;SHT30;69592;44.804;-0.550;2023-05-10T02:59:06;13.62;80.41
80290;SHT30;69592;44.804;-0.550;2023-05-10T03:01:32;13.55;80.55
80290;SHT30;69592;44.804;-0.550;2023-05-10T03:03:57;13.50;81.09
80290;SHT30;69592;44.804;-0.550;2023-05-10T03:06:22;13.49;81.10
80290;SHT30;69592;44.804;-0.550;2023-05-10T03:08:48;13.49;81.01
80290;SHT30;69592;44.804;-0.550;2023-05-10T03:14:42;13.49;80.93
80290;SHT30;69592;44.804;-0.550;2023-05-10T03:17:10;13.46;81.01
80290;SHT30;69592;44.804;-0.550;2023-05-10T03:19:55;13.38;81.24
80290;SHT30;69592;44.804;-0.550;2023-05-10T03:22:31;13.36;81.16
80290;SHT30;69592;44.804;-0.550;2023-05-10T03:24:57;13.27;81.38
80290;SHT30;69592;44.804;-0.550;2023-05-10T03:27:25;13.23;81.36
80290;SHT30;69592;44.804;-0.550;2023-05-10T03:29:52;13.25;81.17
80290;SHT30;69592;44.804;-0.550;2023-05-10T03:32:18;13.25;81.32
80290;SHT30;69592;44.804;-0.550;2023-05-10T03:34:44;13.23;81.15
80290;SHT30;69592;44.804;-0.550;2023-05-10T03:37:09;13.20;81.09
80290;SHT30;69592;44.804;-0.550;2023-05-10T03:39:35;13.25;81.19
80290;SHT30;69592;44.804;-0.550;2023-05-10T03:42:01;13.14;81.09
80290;SHT30;69592;44.804;-0.550;2023-05-10T03:44:26;13.19;81.34
80290;SHT30;69592;44.804;-0.550;2023-05-10T03:46:52;13.14;81.17
80290;SHT30;69592;44.804;-0.550;2023-05-10T03:49:17;13.11;81.10
80290;SHT30;69592;44.804;-0.550;2023-05-10T03:51:42;13.08;81.20
80290;SHT30;69592;44.804;-0.550;2023-05-10T03:54:08;13.08;81.05
80290;SHT30;69592;44.804;-0.550;2023-05-10T03:56:33;13.11;81.20
80290;SHT30;69592;44.804;-0.550;2023-05-10T03:58:59;12.99;81.48
80290;SHT30;69592;44.804;-0.550;2023-05-10T04:01:24;12.98;81.67
80290;SHT30;69592;44.804;-0.550;2023-05-10T04:03:49;12.96;81.54
80290;SHT30;69592;44.804;-0.550;2023-05-10T04:06:15;13.01;81.70
80290;SHT30;69592;44.804;-0.550;2023-05-10T04:08:40;12.94;81.41
80290;SHT30;69592;44.804;-0.550;2023-05-10T04:11:10;12.89;81.46
80290;SHT30;69592;44.804;-0.550;2023-05-10T04:13:36;12.89;81.55
80290;SHT30;69592;44.804;-0.550;2023-05-10T04:16:02;12.74;81.84
80290;SHT30;69592;44.804;-0.550;2023-05-10T04:18:28;12.77;82.10
80290;SHT30;69592;44.804;-0.550;2023-05-10T04:20:53;12.68;81.77
80290;SHT30;69592;44.804;-0.550;2023-05-10T04:23:18;12.64;82.49
80290;SHT30;69592;44.804;-0.550;2023-05-10T04:25:44;12.65;82.15
80290;SHT30;69592;44.804;-0.550;2023-05-10T04:28:09;12.75;81.99
80290;SHT30;69592;44.804;-0.550;2023-05-10T04:30:34;12.74;81.83
80290;SHT30;69592;44.804;-0.550;2023-05-10T04:33:00;12.74;81.73
80290;SHT30;69592;44.804;-0.550;2023-05-10T04:35:27;12.84;81.98
80290;SHT30;69592;44.804;-0.550;2023-05-10T04:37:53;12.89;81.64
80290;SHT30;69592;44.804;-0.550;2023-05-10T04:40:18;12.95;81.40
80290;SHT30;69592;44.804;-0.550;2023-05-10T04:42:44;13.04;81.14
80290;SHT30;69592;44.804;-0.550;2023-05-10T04:45:10;13.01;81.22
80290;SHT30;69592;44.804;-0.550;2023-05-10T04:47:38;13.08;80.81
80290;SHT30;69592;44.804;-0.550;2023-05-10T04:50:04;13.16;80.28
80290;SHT30;69592;44.804;-0.550;2023-05-10T04:52:30;13.22;80.35
80290;SHT30;69592;44.804;-0.550;2023-05-10T04:54:55;13.26;80.18
80290;SHT30;69592;44.804;-0.550;2023-05-10T04:57:21;13.32;80.21
80290;SHT30;69592;44.804;-0.550;2023-05-10T04:59:47;13.34;80.16
80290;SHT30;69592;44.804;-0.550;2023-05-10T05:02:12;13.36;79.31
80290;SHT30;69592;44.804;-0.550;2023-05-10T05:04:38;13.46;79.73
80290;SHT30;69592;44.804;-0.550;2023-05-10T05:07:03;13.52;79.68
80290;SHT30;69592;44.804;-0.550;2023-05-10T05:09:28;13.46;79.30
80290;SHT30;69592;44.804;-0.550;2023-05-10T05:11:54;13.63;79.19
80290;SHT30;69592;44.804;-0.550;2023-05-10T05:14:19;13.74;78.93
80290;SHT30;69592;44.804;-0.550;2023-05-10T05:16:46;13.83;77.98
80290;SHT30;69592;44.804;-0.550;2023-05-10T05:19:11;13.80;78.64
80290;SHT30;69592;44.804;-0.550;2023-05-10T05:21:37;13.97;78.72
80290;SHT30;69592;44.804;-0.550;2023-05-10T05:24:02;14.07;77.93
80290;SHT30;69592;44.804;-0.550;2023-05-10T05:26:28;14.16;77.62
80290;SHT30;69592;44.804;-0.550;2023-05-10T05:28:53;14.22;77.28
80290;SHT30;69592;44.804;-0.550;2023-05-10T05:31:20;14.34;76.60
80290;SHT30;69592;44.804;-0.550;2023-05-10T05:33:45;14.31;76.55
80290;SHT30;69592;44.804;-0.550;2023-05-10T05:36:13;14.30;76.47
80290;SHT30;69592;44.804;-0.550;2023-05-10T05:38:39;14.40;76.30
80290;SHT30;69592;44.804;-0.550;2023-05-10T05:41:04;14.44;76.11
80290;SHT30;69592;44.804;-0.550;2023-05-10T05:43:30;14.41;75.57
80290;SHT30;69592;44.804;-0.550;2023-05-10T05:45:56;14.45;75.12
80290;SHT30;69592;44.804;-0.550;2023-05-10T05:48:23;14.49;75.25
80290;SHT30;69592;44.804;-0.550;2023-05-10T05:50:50;14.49;75.30
80290;SHT30;69592;44.804;-0.550;2023-05-10T05:53:16;14.55;75.38
80290;SHT30;69592;44.804;-0.550;2023-05-10T05:55:55;14.57;74.43
80290;SHT30;69592;44.804;-0.550;2023-05-10T05:58:22;14.64;74.89
80290;SHT30;69592;44.804;-0.550;2023-05-10T06:00:49;14.64;74.72
80290;SHT30;69592;44.804;-0.550;2023-05-10T06:03:14;14.59;74.96
80290;SHT30;69592;44.804;-0.550;2023-05-10T06:05:41;14.71;74.46
80290;SHT30;69592;44.804;-0.550;2023-05-10T06:08:07;14.76;74.32
80290;SHT30;69592;44.804;-0.550;2023-05-10T06:10:32;14.82;73.40
80290;SHT30;69592;44.804;-0.550;2023-05-10T06:13:11;14.86;72.99
80290;SHT30;69592;44.804;-0.550;2023-05-10T06:15:40;14.83;72.42
80290;SHT30;69592;44.804;-0.550;2023-05-10T06:18:06;14.93;73.49
80290;SHT30;69592;44.804;-0.550;2023-05-10T06:20:42;15.06;72.41
80290;SHT30;69592;44.804;-0.550;2023-05-10T06:23:12;15.16;73.03
80290;SHT30;69592;44.804;-0.550;2023-05-10T06:25:37;15.20;72.84
80290;SHT30;69592;44.804;-0.550;2023-05-10T06:28:02;15.19;73.21
80290;SHT30;69592;44.804;-0.550;2023-05-10T06:30:28;15.29;73.36
80290;SHT30;69592;44.804;-0.550;2023-05-10T06:32:54;15.37;73.55
80290;SHT30;69592;44.804;-0.550;2023-05-10T06:35:20;15.46;73.45
80290;SHT30;69592;44.804;-0.550;2023-05-10T06:37:45;15.44;73.66
80290;SHT30;69592;44.804;-0.550;2023-05-10T06:40:12;15.54;73.78
80290;SHT30;69592;44.804;-0.550;2023-05-10T06:42:38;15.60;73.67
80290;SHT30;69592;44.804;-0.550;2023-05-10T06:45:12;15.65;73.59
80290;SHT30;69592;44.804;-0.550;2023-05-10T06:47:42;15.73;73.47
80290;SHT30;69592;44.804;-0.550;2023-05-10T06:50:14;15.67;73.41
80290;SHT30;69592;44.804;-0.550;2023-05-10T06:52:40;15.65;73.54
80290;SHT30;69592;44.804;-0.550;2023-05-10T06:55:09;15.53;73.62
80290;SHT30;69592;44.804;-0.550;2023-05-10T06:57:44;15.49;74.04
80290;SHT30;69592;44.804;-0.550;2023-05-10T07:00:09;15.56;73.99
80290;SHT30;69592;44.804;-0.550;2023-05-10T07:02:36;15.98;73.03
80290;SHT30;69592;44.804;-0.550;2023-05-10T07:05:01;16.15;72.47
80290;SHT30;69592;44.804;-0.550;2023-05-10T07:07:27;16.11;71.43
80290;SHT30;69592;44.804;-0.550;2023-05-10T07:09:53;16.08;71.80
80290;SHT30;69592;44.804;-0.550;2023-05-10T07:12:18;16.09;71.65
80290;SHT30;69592;44.804;-0.550;2023-05-10T07:14:44;16.25;71.92
80290;SHT30;69592;44.804;-0.550;2023-05-10T07:17:09;16.30;71.06
80290;SHT30;69592;44.804;-0.550;2023-05-10T07:19:36;16.41;70.77
80290;SHT30;69592;44.804;-0.550;2023-05-10T07:22:03;16.41;70.65
80290;SHT30;69592;44.804;-0.550;2023-05-10T07:24:39;16.55;70.54
80290;SHT30;69592;44.804;-0.550;2023-05-10T07:27:09;16.45;70.97
80290;SHT30;69592;44.804;-0.550;2023-05-10T07:29:52;15.85;71.06
80290;SHT30;69592;44.804;-0.550;2023-05-10T07:32:17;15.42;72.48
80290;SHT30;69592;44.804;-0.550;2023-05-10T07:34:42;15.81;72.65
80290;SHT30;69592;44.804;-0.550;2023-05-10T07:37:08;16.35;71.70
80290;SHT30;69592;44.804;-0.550;2023-05-10T07:39:33;16.76;70.89
80290;SHT30;69592;44.804;-0.550;2023-05-10T07:41:59;16.69;69.02
80290;SHT30;69592;44.804;-0.550;2023-05-10T07:44:24;17.03;68.61
80290;SHT30;69592;44.804;-0.550;2023-05-10T07:46:49;17.28;68.25
80290;SHT30;69592;44.804;-0.550;2023-05-10T07:49:15;17.17;68.02
80290;SHT30;69592;44.804;-0.550;2023-05-10T07:51:41;16.70;69.42
80290;SHT30;69592;44.804;-0.550;2023-05-10T07:54:07;17.06;69.04
80290;SHT30;69592;44.804;-0.550;2023-05-10T07:56:36;17.32;68.54
80290;SHT30;69592;44.804;-0.550;2023-05-10T07:59:03;17.28;67.20
80290;SHT30;69592;44.804;-0.550;2023-05-10T08:01:43;17.54;66.56
80290;SHT30;69592;44.804;-0.550;2023-05-10T08:04:32;17.65;65.96
80290;SHT30;69592;44.804;-0.550;2023-05-10T08:06:59;17.89;65.15
80290;SHT30;69592;44.804;-0.550;2023-05-10T08:09:25;17.71;64.90
80290;SHT30;69592;44.804;-0.550;2023-05-10T08:11:50;18.32;64.03
80290;SHT30;69592;44.804;-0.550;2023-05-10T08:14:16;18.39;62.89
80290;SHT30;69592;44.804;-0.550;2023-05-10T08:16:41;18.30;62.42
80290;SHT30;69592;44.804;-0.550;2023-05-10T08:19:07;18.22;63.76
80290;SHT30;69592;44.804;-0.550;2023-05-10T08:21:32;18.17;63.98
80290;SHT30;69592;44.804;-0.550;2023-05-10T08:23:58;18.19;63.64
80290;SHT30;69592;44.804;-0.550;2023-05-10T08:26:24;17.89;63.73
80290;SHT30;69592;44.804;-0.550;2023-05-10T08:28:49;17.14;67.53
80290;SHT30;69592;44.804;-0.550;2023-05-10T08:31:15;16.94;72.18
80290;SHT30;69592;44.804;-0.550;2023-05-10T08:33:41;16.25;75.03
80290;SHT30;69592;44.804;-0.550;2023-05-10T08:36:08;15.67;76.31
80290;SHT30;69592;44.804;-0.550;2023-05-10T08:38:37;15.33;78.29
80290;SHT30;69592;44.804;-0.550;2023-05-10T08:41:08;15.57;77.32
80290;SHT30;69592;44.804;-0.550;2023-05-10T08:43:36;15.44;77.59
80290;SHT30;69592;44.804;-0.550;2023-05-10T08:46:03;15.53;79.80
80290;SHT30;69592;44.804;-0.550;2023-05-10T08:48:30;15.65;78.28
80290;SHT30;69592;44.804;-0.550;2023-05-10T08:51:00;15.57;75.77
80290;SHT30;69592;44.804;-0.550;2023-05-10T08:53:28;15.49;76.62
80290;SHT30;69592;44.804;-0.550;2023-05-10T08:55:57;15.75;77.86
80290;SHT30;69592;44.804;-0.550;2023-05-10T08:58:23;15.47;77.36
80290;SHT30;69592;44.804;-0.550;2023-05-10T09:00:49;15.61;74.99
80290;SHT30;69592;44.804;-0.550;2023-05-10T09:03:16;15.60;75.54
80290;SHT30;69592;44.804;-0.550;2023-05-10T09:05:43;16.28;76.01
80290;SHT30;69592;44.804;-0.550;2023-05-10T09:08:10;16.76;73.22
80290;SHT30;69592;44.804;-0.550;2023-05-10T09:10:39;16.94;74.42
80290;SHT30;69592;44.804;-0.550;2023-05-10T09:16:31;17.41;71.22
80290;SHT30;69592;44.804;-0.550;2023-05-10T09:19:16;17.79;70.24
80290;SHT30;69592;44.804;-0.550;2023-05-10T09:21:49;18.21;72.76
80290;SHT30;69592;44.804;-0.550;2023-05-10T09:24:40;17.44;72.15
80290;SHT30;69592;44.804;-0.550;2023-05-10T09:27:14;16.62;70.65
80290;SHT30;69592;44.804;-0.550;2023-05-10T09:30:02;15.73;75.04
80290;SHT30;69592;44.804;-0.550;2023-05-10T09:32:44;15.74;73.57
80290;SHT30;69592;44.804;-0.550;2023-05-10T09:35:19;16.17;75.46
80290;SHT30;69592;44.804;-0.550;2023-05-10T09:37:56;16.02;73.20
80290;SHT30;69592;44.804;-0.550;2023-05-10T09:40:26;15.83;72.84
80290;SHT30;69592;44.804;-0.550;2023-05-10T09:43:09;15.85;73.32
80290;SHT30;69592;44.804;-0.550;2023-05-10T09:46:15;15.88;73.47
80290;SHT30;69592;44.804;-0.550;2023-05-10T09:49:08;16.22;72.35
80290;SHT30;69592;44.804;-0.550;2023-05-10T09:55:09;17.40;71.84
80290;SHT30;69592;44.804;-0.550;2023-05-10T09:58:24;17.88;70.22
80290;SHT30;69592;44.804;-0.550;2023-05-10T10:01:40;17.71;68.49
80290;SHT30;69592;44.804;-0.550;2023-05-10T10:07:50;17.16;68.15
80290;SHT30;69592;44.804;-0.550;2023-05-10T10:10:32;17.17;67.94
80290;SHT30;69592;44.804;-0.550;2023-05-10T10:17:21;17.61;68.32
80290;SHT30;69592;44.804;-0.550;2023-05-10T10:26:33;18.59;67.27
80290;SHT30;69592;44.804;-0.550;2023-05-10T10:32:29;19.25;65.98
80290;SHT30;69592;44.804;-0.550;2023-05-10T10:35:17;17.65;64.00
80290;SHT30;69592;44.804;-0.550;2023-05-10T10:38:13;16.72;65.83
80290;SHT30;69592;44.804;-0.550;2023-05-10T10:41:09;16.12;71.18
80290;SHT30;69592;44.804;-0.550;2023-05-10T10:50:07;16.49;78.08
80290;SHT30;69592;44.804;-0.550;2023-05-10T10:52:46;16.68;75.68
80290;SHT30;69592;44.804;-0.550;2023-05-10T10:55:19;16.62;73.78
80290;SHT30;69592;44.804;-0.550;2023-05-10T10:58:09;16.87;73.61
80290;SHT30;69592;44.804;-0.550;2023-05-10T11:00:39;16.93;71.64
80290;SHT30;69592;44.804;-0.550;2023-05-10T11:03:09;17.23;73.64
80290;SHT30;69592;44.804;-0.550;2023-05-10T11:08:12;17.91;72.62
80290;SHT30;69592;44.804;-0.550;2023-05-10T11:10:39;18.13;69.37
80290;SHT30;69592;44.804;-0.550;2023-05-10T11:13:09;18.13;68.19
80290;SHT30;69592;44.804;-0.550;2023-05-10T11:15:56;18.57;69.09
80290;SHT30;69592;44.804;-0.550;2023-05-10T11:19:01;19.12;65.37
80290;SHT30;69592;44.804;-0.550;2023-05-10T11:21:50;18.57;60.19
80290;SHT30;69592;44.804;-0.550;2023-05-10T11:24:58;18.73;60.14
80290;SHT30;69592;44.804;-0.550;2023-05-10T11:27:31;19.34;59.54
80290;SHT30;69592;44.804;-0.550;2023-05-10T11:30:58;19.45;59.38
80290;SHT30;69592;44.804;-0.550;2023-05-10T11:33:51;19.28;57.08
80290;SHT30;69592;44.804;-0.550;2023-05-10T11:36:54;19.28;56.53
80290;SHT30;69592;44.804;-0.550;2023-05-10T11:39:35;19.12;57.95
80290;SHT30;69592;44.804;-0.550;2023-05-10T11:42:03;18.91;58.86
80290;SHT30;69592;44.804;-0.550;2023-05-10T11:44:34;19.51;59.41
80290;SHT30;69592;44.804;-0.550;2023-05-10T11:47:01;19.65;56.63
80290;SHT30;69592;44.804;-0.550;2023-05-10T11:49:28;19.62;56.84
80290;SHT30;69592;44.804;-0.550;2023-05-10T11:52:10;19.61;56.54
80290;SHT30;69592;44.804;-0.550;2023-05-10T11:55:05;19.48;55.85
80290;SHT30;69592;44.804;-0.550;2023-05-10T11:57:32;19.82;52.08
80290;SHT30;69592;44.804;-0.550;2023-05-10T12:00:04;20.09;53.10
80290;SHT30;69592;44.804;-0.550;2023-05-10T12:02:29;19.90;53.41
80290;SHT30;69592;44.804;-0.550;2023-05-10T12:04:56;20.12;53.08
80290;SHT30;69592;44.804;-0.550;2023-05-10T12:07:26;19.76;53.64
80290;SHT30;69592;44.804;-0.550;2023-05-10T12:10:10;20.05;54.67
80290;SHT30;69592;44.804;-0.550;2023-05-10T12:12:49;19.79;53.20
80290;SHT30;69592;44.804;-0.550;2023-05-10T12:15:23;20.00;50.22
80290;SHT30;69592;44.804;-0.550;2023-05-10T12:17:51;19.72;52.13
80290;SHT30;69592;44.804;-0.550;2023-05-10T12:20:41;19.85;50.42
80290;SHT30;69592;44.804;-0.550;2023-05-10T12:23:09;20.12;50.10
80290;SHT30;69592;44.804;-0.550;2023-05-10T12:25:47;20.29;49.22
80290;SHT30;69592;44.804;-0.550;2023-05-10T12:28:12;20.78;50.67
80290;SHT30;69592;44.804;-0.550;2023-05-10T12:30:39;20.74;51.45
80290;SHT30;69592;44.804;-0.550;2023-05-10T12:33:12;21.12;49.74
80290;SHT30;69592;44.804;-0.550;2023-05-10T12:35:45;21.28;48.16
80290;SHT30;69592;44.804;-0.550;2023-05-10T12:38:38;21.62;49.29
80290;SHT30;69592;44.804;-0.550;2023-05-10T12:41:09;21.80;48.76
80290;SHT30;69592;44.804;-0.550;2023-05-10T12:43:36;21.35;46.78
80290;SHT30;69592;44.804;-0.550;2023-05-10T12:46:16;20.71;48.43
80290;SHT30;69592;44.804;-0.550;2023-05-10T12:48:43;20.75;48.94
80290;SHT30;69592;44.804;-0.550;2023-05-10T12:51:12;20.71;51.16
80290;SHT30;69592;44.804;-0.550;2023-05-10T12:53:41;21.21;51.75
80290;SHT30;69592;44.804;-0.550;2023-05-10T12:56:08;21.72;50.38
80290;SHT30;69592;44.804;-0.550;2023-05-10T12:58:36;22.17;50.42
80290;SHT30;69592;44.804;-0.550;2023-05-10T13:01:25;21.59;47.31
80290;SHT30;69592;44.804;-0.550;2023-05-10T13:03:50;21.42;51.55
80290;SHT30;69592;44.804;-0.550;2023-05-10T13:06:16;21.85;46.82
80290;SHT30;69592;44.804;-0.550;2023-05-10T13:08:42;21.24;48.98
80290;SHT30;69592;44.804;-0.550;2023-05-10T13:11:08;20.51;48.07
80290;SHT30;69592;44.804;-0.550;2023-05-10T13:13:40;20.80;50.05
80290;SHT30;69592;44.804;-0.550;2023-05-10T13:16:07;20.61;48.09
80290;SHT30;69592;44.804;-0.550;2023-05-10T13:18:34;19.94;49.82
80290;SHT30;69592;44.804;-0.550;2023-05-10T13:21:01;20.06;51.58
80290;SHT30;69592;44.804;-0.550;2023-05-10T13:23:29;19.73;53.82
80290;SHT30;69592;44.804;-0.550;2023-05-10T13:25:54;19.55;53.69
80290;SHT30;69592;44.804;-0.550;2023-05-10T13:28:20;19.49;52.96
80290;SHT30;69592;44.804;-0.550;2023-05-10T13:30:45;19.31;51.94
80290;SHT30;69592;44.804;-0.550;2023-05-10T13:33:11;18.94;51.69
80290;SHT30;69592;44.804;-0.550;2023-05-10T13:35:36;19.65;52.23
80290;SHT30;69592;44.804;-0.550;2023-05-10T13:38:03;19.61;52.72
80290;SHT30;69592;44.804;-0.550;2023-05-10T13:40:30;20.16;50.38
80290;SHT30;69592;44.804;-0.550;2023-05-10T13:42:55;20.58;50.19
80290;SHT30;69592;44.804;-0.550;2023-05-10T13:45:22;20.26;48.59
80290;SHT30;69592;44.804;-0.550;2023-05-10T13:47:47;20.51;50.26
80290;SHT30;69592;44.804;-0.550;2023-05-10T13:50:13;20.77;51.16
80290;SHT30;69592;44.804;-0.550;2023-05-10T13:52:39;19.92;53.29
80290;SHT30;69592;44.804;-0.550;2023-05-10T13:55:04;20.50;52.48
80290;SHT30;69592;44.804;-0.550;2023-05-10T13:57:30;21.16;51.42
80290;SHT30;69592;44.804;-0.550;2023-05-10T13:59:55;20.98;47.48
80290;SHT30;69592;44.804;-0.550;2023-05-10T14:02:22;20.17;45.24
80290;SHT30;69592;44.804;-0.550;2023-05-10T14:04:49;20.12;46.48
80290;SHT30;69592;44.804;-0.550;2023-05-10T14:07:15;20.61;44.14
80290;SHT30;69592;44.804;-0.550;2023-05-10T14:09:40;21.21;44.23
80290;SHT30;69592;44.804;-0.550;2023-05-10T14:12:11;21.99;44.63
80290;SHT30;69592;44.804;-0.550;2023-05-10T14:14:37;21.83;44.99
80290;SHT30;69592;44.804;-0.550;2023-05-10T14:17:02;21.02;46.94
80290;SHT30;69592;44.804;-0.550;2023-05-10T14:19:28;20.92;49.42
80290;SHT30;69592;44.804;-0.550;2023-05-10T14:21:55;20.75;50.18
80290;SHT30;69592;44.804;-0.550;2023-05-10T14:24:21;20.40;49.69
80290;SHT30;69592;44.804;-0.550;2023-05-10T14:26:46;20.61;49.83
80290;SHT30;69592;44.804;-0.550;2023-05-10T14:29:11;20.77;48.23
80290;SHT30;69592;44.804;-0.550;2023-05-10T14:31:37;19.90;48.92
80290;SHT30;69592;44.804;-0.550;2023-05-10T14:34:02;20.03;48.07
80290;SHT30;69592;44.804;-0.550;2023-05-10T14:36:28;20.75;45.93
80290;SHT30;69592;44.804;-0.550;2023-05-10T14:38:54;20.91;47.23
80290;SHT30;69592;44.804;-0.550;2023-05-10T14:41:22;20.87;49.44
80290;SHT30;69592;44.804;-0.550;2023-05-10T14:43:48;20.17;51.28
80290;SHT30;69592;44.804;-0.550;2023-05-10T14:46:13;20.31;51.94
80290;SHT30;69592;44.804;-0.550;2023-05-10T14:48:38;19.49;50.99
80290;SHT30;69592;44.804;-0.550;2023-05-10T14:51:04;19.11;51.59
80290;SHT30;69592;44.804;-0.550;2023-05-10T14:53:29;19.28;52.61
80290;SHT30;69592;44.804;-0.550;2023-05-10T14:55:55;19.97;50.04
80290;SHT30;69592;44.804;-0.550;2023-05-10T14:58:20;19.87;47.97
80290;SHT30;69592;44.804;-0.550;2023-05-10T15:00:45;20.29;49.21
80290;SHT30;69592;44.804;-0.550;2023-05-10T15:03:11;19.79;46.93
80290;SHT30;69592;44.804;-0.550;2023-05-10T15:05:37;20.20;47.34
80290;SHT30;69592;44.804;-0.550;2023-05-10T15:08:03;20.06;47.84
80290;SHT30;69592;44.804;-0.550;2023-05-10T15:10:32;19.63;47.81
80290;SHT30;69592;44.804;-0.550;2023-05-10T15:13:21;19.58;47.59
80290;SHT30;69592;44.804;-0.550;2023-05-10T15:15:47;19.00;49.62
80290;SHT30;69592;44.804;-0.550;2023-05-10T15:18:12;19.08;50.50
80290;SHT30;69592;44.804;-0.550;2023-05-10T15:20:40;19.21;50.39
80290;SHT30;69592;44.804;-0.550;2023-05-10T15:23:09;19.54;50.54
80290;SHT30;69592;44.804;-0.550;2023-05-10T15:25:34;19.38;49.92
80290;SHT30;69592;44.804;-0.550;2023-05-10T15:28:02;19.63;50.43
80290;SHT30;69592;44.804;-0.550;2023-05-10T15:30:28;19.80;48.74
80290;SHT30;69592;44.804;-0.550;2023-05-10T15:32:55;19.80;49.22
80290;SHT30;69592;44.804;-0.550;2023-05-10T15:35:21;19.86;49.08
80290;SHT30;69592;44.804;-0.550;2023-05-10T15:37:49;19.63;49.74
80290;SHT30;69592;44.804;-0.550;2023-05-10T15:40:15;19.54;49.62
80290;SHT30;69592;44.804;-0.550;2023-05-10T15:42:42;19.22;50.05
80290;SHT30;69592;44.804;-0.550;2023-05-10T15:45:08;19.12;50.65
80290;SHT30;69592;44.804;-0.550;2023-05-10T15:47:33;19.42;50.14
80290;SHT30;69592;44.804;-0.550;2023-05-10T15:49:59;19.45;50.82
80290;SHT30;69592;44.804;-0.550;2023-05-10T15:52:28;19.39;51.42
80290;SHT30;69592;44.804;-0.550;2023-05-10T15:55:01;19.80;52.15
80290;SHT30;69592;44.804;-0.550;2023-05-10T15:57:29;19.69;51.60
80290;SHT30;69592;44.804;-0.550;2023-05-10T15:59:54;19.78;51.73
80290;SHT30;69592;44.804;-0.550;2023-05-10T16:02:20;19.79;52.05
80290;SHT30;69592;44.804;-0.550;2023-05-10T16:04:50;19.65;51.07
80290;SHT30;69592;44.804;-0.550;2023-05-10T16:07:17;19.51;52.83
80290;SHT30;69592;44.804;-0.550;2023-05-10T16:09:43;19.00;53.93
80290;SHT30;69592;44.804;-0.550;2023-05-10T16:12:13;18.63;54.66
80290;SHT30;69592;44.804;-0.550;2023-05-10T16:14:39;18.43;54.82
80290;SHT30;69592;44.804;-0.550;2023-05-10T16:17:08;18.78;54.51
80290;SHT30;69592;44.804;-0.550;2023-05-10T16:19:33;18.56;53.69
80290;SHT30;69592;44.804;-0.550;2023-05-10T16:22:00;18.28;54.16